Pagrindinis puslapis
METAR-TAF:

METAR-TAF

Oro uostai :

Ahvazas, Iranas

platuma: 31-20N, ilguma: 048-40E, Aukštis: 20 m

Dabartinis oras

Ataskaita buvo paskelbta 11 minutes, ne 08:30 UTC
Vėjas 4 kt iš Vakarų/Pietvakarių
Temperatūra 37°C
Drėgmė 18%
Slėgis 1012 hPa
Matomumas: 8000 m

METAR: OIAW 180830Z 25004KT 8000 NSC 37/09 Q1012

Laikas: 12:11 (08:41 UTC)

Prognozė

Ataskaita buvo paskelbta 2 valandos ir 51 minutes, ne 05:50 UTC
Prognozė galioja nuo 18 metu 06 UTC su 19 metu 12 UTC
Vėjas 8 kt iš Vakarų
Matomumas: 6000 m
Laikinai
nuo 18 metu 10 UTC su 18 metu 14 UTC
Vėjas 16 kt iš Šiaurės Vakarų
Laikinai
nuo 19 metu 00 UTC su 19 metu 04 UTC
Matomumas: 4000 m
migla

TAF: OIAW 180550Z 1806/1912 28008KT 6000 NSC TEMPO 1810/1814 32016KT TEMPO 1900/1904 4000 HZ

Orai ataskaitas ir orų prognozės (METAR, TAF).

turimą stotys yra geltonos ir raudonos taškus žemėlapyje.

Perkelti pele per norėdami pamatyti stoties vardą.

Tada spustelėkite, norėdami matyti oro stebėjimo ir prognozės.

Norėdami pakeisti žemėlapį: spustelėkite ant žalios mygtukų su juodo kryžiaus žemyn,; žalią mygtuką su brūkšneliu, jei norite nutolinti; arba žalių rodyklių gretimoms žemėlapius.


METAR-TAF: